createdAt,value
2022-12-08T00:01:25.412Z,14.20
2022-12-08T00:03:53.908Z,14.02
2022-12-08T00:06:45.006Z,13.18
2022-12-08T00:09:24.875Z,13.13
2022-12-08T00:11:59.209Z,13.07
2022-12-08T00:14:29.573Z,13.48
2022-12-08T00:16:58.363Z,12.65
2022-12-08T00:19:26.821Z,13.98
2022-12-08T00:21:55.159Z,14.35
2022-12-08T00:24:24.327Z,14.93
2022-12-08T00:26:53.636Z,14.60
2022-12-08T00:29:21.581Z,13.98
2022-12-08T00:31:49.252Z,12.43
2022-12-08T00:34:17.721Z,12.90
2022-12-08T00:36:45.589Z,13.60
2022-12-08T00:39:14.811Z,12.73
2022-12-08T00:41:59.934Z,13.05
2022-12-08T00:44:28.875Z,12.52
2022-12-08T00:46:57.108Z,12.43
2022-12-08T00:49:25.174Z,12.75
2022-12-08T00:51:52.787Z,11.32
2022-12-08T00:54:20.882Z,12.25
2022-12-08T00:56:48.718Z,12.63
2022-12-08T00:59:16.873Z,11.75
2022-12-08T01:01:46.972Z,10.88
2022-12-08T01:04:17.562Z,12.05
2022-12-08T01:06:45.979Z,11.50
2022-12-08T01:09:15.628Z,10.82
2022-12-08T01:11:44.394Z,10.10
2022-12-08T01:14:13.006Z,11.20
2022-12-08T01:16:41.836Z,10.32
2022-12-08T01:19:12.973Z,9.50
2022-12-08T01:21:41.860Z,9.30
2022-12-08T01:24:12.140Z,10.13
2022-12-08T01:26:42.531Z,9.43
2022-12-08T01:29:11.030Z,8.38
2022-12-08T01:31:39.122Z,10.05
2022-12-08T01:34:08.093Z,8.85
2022-12-08T01:36:38.542Z,8.80
2022-12-08T01:39:09.263Z,9.20
2022-12-08T01:41:38.665Z,9.30
2022-12-08T01:44:39.634Z,9.73
2022-12-08T01:47:07.383Z,9.00
2022-12-08T01:49:37.218Z,9.25
2022-12-08T01:52:14.202Z,9.65
2022-12-08T01:54:46.720Z,7.97
2022-12-08T01:57:17.141Z,8.23
2022-12-08T01:59:49.579Z,7.43
2022-12-08T02:02:17.456Z,8.07
2022-12-08T02:04:45.324Z,7.63
2022-12-08T02:07:16.570Z,7.95
2022-12-08T02:09:45.336Z,6.68
2022-12-08T02:12:13.213Z,6.60
2022-12-08T02:14:41.250Z,6.82
2022-12-08T02:17:20.685Z,7.22
2022-12-08T02:20:18.055Z,7.75
2022-12-08T02:22:55.690Z,8.15
2022-12-08T02:25:32.212Z,7.72
2022-12-08T02:28:11.676Z,8.02
2022-12-08T02:30:48.340Z,7.30
2022-12-08T02:33:38.839Z,7.40
2022-12-08T02:36:09.027Z,7.63
2022-12-08T02:38:48.857Z,6.75
2022-12-08T02:41:26.928Z,6.72
2022-12-08T02:43:59.678Z,7.57
2022-12-08T02:46:31.977Z,7.18
2022-12-08T02:49:03.444Z,6.82
2022-12-08T02:51:31.059Z,6.70
2022-12-08T02:53:59.094Z,7.20
2022-12-08T02:56:50.270Z,6.47
2022-12-08T02:59:30.876Z,6.43
2022-12-08T03:02:19.246Z,6.18
2022-12-08T03:04:59.285Z,6.15
2022-12-08T03:07:32.925Z,5.93
2022-12-08T03:10:06.624Z,6.43
2022-12-08T03:12:39.754Z,5.95
2022-12-08T03:15:10.537Z,5.65
2022-12-08T03:17:41.932Z,5.80
2022-12-08T03:20:15.488Z,5.05
2022-12-08T03:22:45.365Z,5.50
2022-12-08T03:25:16.709Z,4.90
2022-12-08T03:27:44.752Z,5.15
2022-12-08T03:30:13.262Z,5.13
2022-12-08T03:32:47.739Z,5.40
2022-12-08T03:35:20.196Z,4.82
2022-12-08T03:37:48.314Z,4.65
2022-12-08T03:40:17.705Z,4.18
2022-12-08T03:42:45.381Z,4.53
2022-12-08T03:45:13.310Z,4.53
2022-12-08T03:47:40.969Z,4.70
2022-12-08T03:50:09.500Z,4.75
2022-12-08T03:52:38.609Z,4.65
2022-12-08T03:55:07.461Z,4.38
2022-12-08T03:57:35.206Z,4.28
2022-12-08T04:00:03.319Z,4.10
2022-12-08T04:02:32.861Z,4.30
2022-12-08T04:05:00.567Z,4.32
2022-12-08T04:07:28.411Z,3.90
2022-12-08T04:09:57.538Z,3.95
2022-12-08T04:12:25.476Z,3.95
2022-12-08T04:14:53.203Z,3.42
2022-12-08T04:17:20.839Z,2.78
2022-12-08T04:19:48.648Z,2.38
2022-12-08T04:22:16.213Z,2.90
2022-12-08T04:24:44.216Z,2.13
2022-12-08T04:27:13.910Z,2.42
2022-12-08T04:29:41.704Z,3.35
2022-12-08T04:32:09.371Z,2.30
2022-12-08T04:34:36.930Z,1.80
2022-12-08T04:37:04.648Z,2.17
2022-12-08T04:39:32.324Z,2.40
2022-12-08T04:42:00.042Z,3.10
2022-12-08T04:44:29.152Z,3.30
2022-12-08T04:46:56.932Z,4.57
2022-12-08T04:49:24.574Z,3.47
2022-12-08T04:51:52.291Z,3.08
2022-12-08T04:54:19.946Z,3.38
2022-12-08T04:56:47.547Z,2.60
2022-12-08T04:59:15.162Z,2.63
2022-12-08T05:01:44.322Z,2.95
2022-12-08T05:04:12.261Z,3.10
2022-12-08T05:06:39.961Z,2.70
2022-12-08T05:09:07.727Z,2.97
2022-12-08T05:11:35.410Z,3.10
2022-12-08T05:14:03.107Z,3.05
2022-12-08T05:16:31.045Z,2.80
2022-12-08T05:19:00.370Z,2.45
2022-12-08T05:21:28.195Z,2.92
2022-12-08T05:23:55.796Z,3.08
2022-12-08T05:26:24.100Z,2.85
2022-12-08T05:28:52.025Z,3.35
2022-12-08T05:31:19.794Z,3.08
2022-12-08T05:33:47.765Z,2.20
2022-12-08T05:36:17.802Z,2.72
2022-12-08T05:38:46.398Z,2.50
2022-12-08T05:41:16.220Z,2.17
2022-12-08T05:43:43.975Z,2.50
2022-12-08T05:46:13.904Z,2.25
2022-12-08T05:48:42.040Z,1.95
2022-12-08T05:51:19.574Z,2.50
2022-12-08T05:53:48.484Z,2.55
2022-12-08T05:56:18.446Z,2.55
2022-12-08T05:58:48.845Z,2.10
2022-12-08T06:01:24.430Z,2.40
2022-12-08T06:03:53.603Z,2.20
2022-12-08T06:06:23.106Z,2.10
2022-12-08T06:12:51.558Z,1.90
2022-12-08T06:15:38.772Z,1.73
2022-12-08T06:18:32.501Z,2.22
2022-12-08T06:21:24.991Z,2.00
2022-12-08T06:24:13.200Z,2.22
2022-12-08T14:44:20.734Z,4.50
2022-12-08T14:47:09.108Z,5.30
2022-12-08T14:49:39.243Z,5.00
2022-12-08T14:52:11.226Z,5.53
2022-12-08T14:54:40.364Z,5.75
2022-12-08T14:57:08.471Z,5.75
2022-12-08T14:59:37.659Z,4.80
2022-12-08T15:02:23.083Z,5.82
2022-12-08T15:04:57.809Z,7.55
2022-12-08T15:07:28.291Z,5.13
2022-12-08T15:10:29.368Z,4.35
2022-12-08T15:13:03.531Z,4.60
2022-12-08T15:15:32.590Z,4.28
2022-12-08T15:18:12.113Z,4.90
2022-12-08T15:20:43.942Z,3.58
2022-12-08T15:23:26.917Z,3.97
2022-12-08T15:25:55.575Z,4.63
2022-12-08T15:28:29.768Z,4.45
2022-12-08T15:30:58.715Z,4.43
2022-12-08T15:33:28.082Z,4.45
2022-12-08T15:35:55.804Z,4.82
2022-12-08T15:38:25.820Z,4.10
2022-12-08T15:40:53.731Z,5.78
2022-12-08T15:43:21.839Z,4.90
2022-12-08T15:45:58.382Z,4.07
2022-12-08T15:48:30.950Z,4.05
2022-12-08T15:50:59.628Z,5.50
2022-12-08T15:53:27.239Z,4.85
2022-12-08T15:56:26.518Z,6.57
2022-12-08T15:58:59.376Z,7.93
2022-12-08T16:01:30.130Z,6.07
2022-12-08T16:04:36.949Z,5.68
2022-12-08T16:07:20.785Z,4.80
2022-12-08T16:09:42.509Z,5.15
2022-12-08T16:12:57.170Z,4.95
2022-12-08T16:18:14.859Z,7.63
2022-12-08T16:23:46.146Z,8.45
2022-12-08T16:26:35.721Z,6.95
2022-12-08T16:29:08.775Z,13.60
2022-12-08T16:31:44.691Z,7.00
2022-12-08T16:34:19.906Z,8.00
2022-12-08T16:36:52.421Z,8.15
2022-12-08T16:39:21.521Z,9.18
2022-12-08T16:42:09.399Z,11.02
2022-12-08T16:44:41.218Z,12.25
2022-12-08T16:47:11.237Z,11.93
2022-12-08T16:49:41.784Z,10.25
2022-12-08T16:52:11.115Z,12.57
2022-12-08T16:54:38.793Z,10.98
2022-12-08T16:57:06.421Z,11.07
2022-12-08T16:59:33.980Z,13.05
2022-12-08T17:02:13.662Z,16.83
2022-12-08T17:04:48.918Z,12.15
2022-12-08T17:07:18.396Z,11.07
2022-12-08T17:09:46.139Z,9.65
2022-12-08T17:12:15.063Z,9.13
2022-12-08T17:14:42.881Z,9.27
2022-12-08T17:17:10.919Z,8.82
2022-12-08T17:19:44.352Z,9.85
2022-12-08T17:22:12.360Z,11.80
2022-12-08T17:25:04.042Z,10.50
2022-12-08T17:27:31.959Z,9.38
2022-12-08T17:30:02.788Z,9.82
2022-12-08T17:32:31.218Z,9.55
2022-12-08T17:34:58.992Z,8.98
2022-12-08T17:37:29.935Z,9.93
2022-12-08T17:39:59.080Z,10.32
2022-12-08T17:42:27.343Z,10.45
2022-12-08T17:44:55.926Z,9.85
2022-12-08T17:47:25.844Z,11.88
2022-12-08T17:49:56.589Z,10.80
2022-12-08T17:52:24.842Z,11.38
2022-12-08T17:54:52.611Z,10.88
2022-12-08T17:57:23.797Z,12.48
2022-12-08T17:59:52.917Z,11.45
2022-12-08T18:02:20.847Z,12.05
2022-12-08T18:04:48.616Z,11.20
2022-12-08T18:07:16.244Z,13.88
2022-12-08T18:09:43.952Z,11.52
2022-12-08T18:12:11.635Z,12.82
2022-12-08T18:14:40.664Z,14.90
2022-12-08T18:17:08.396Z,12.60
2022-12-08T18:19:36.050Z,12.07
2022-12-08T18:22:05.894Z,13.07
2022-12-08T18:24:33.796Z,12.43
2022-12-08T18:27:01.814Z,14.70
2022-12-08T18:29:29.598Z,13.85
2022-12-08T18:31:58.819Z,15.52
2022-12-08T18:34:26.663Z,13.60
2022-12-08T18:36:54.508Z,13.13
2022-12-08T18:39:27.391Z,13.70
2022-12-08T18:41:55.702Z,13.10
2022-12-08T18:44:23.328Z,14.23
2022-12-08T18:46:51.402Z,12.32
2022-12-08T18:49:21.014Z,13.80
2022-12-08T18:52:00.077Z,12.05
2022-12-08T18:54:50.052Z,13.90
2022-12-08T18:57:18.099Z,12.40
2022-12-08T18:59:51.125Z,12.60
2022-12-08T19:02:19.451Z,13.40
2022-12-08T19:04:49.040Z,12.98
2022-12-08T19:07:18.502Z,11.95
2022-12-08T19:09:48.828Z,12.98
2022-12-08T19:12:19.869Z,15.00
2022-12-08T19:14:47.938Z,12.90
2022-12-08T19:17:15.722Z,12.60
2022-12-08T19:19:43.812Z,11.52
2022-12-08T19:22:13.314Z,12.63
2022-12-08T19:24:41.216Z,13.48
2022-12-08T19:27:09.357Z,13.15
2022-12-08T19:29:37.131Z,12.90
2022-12-08T19:32:05.827Z,12.27
2022-12-08T19:34:36.498Z,13.02
2022-12-08T19:37:18.234Z,11.82
2022-12-08T19:40:16.835Z,11.85
2022-12-08T19:43:15.892Z,12.73
2022-12-08T19:46:01.713Z,12.82
2022-12-08T19:48:35.708Z,11.85
2022-12-08T19:51:15.754Z,12.57
2022-12-08T19:53:57.348Z,13.77
2022-12-08T19:56:36.501Z,14.88
2022-12-08T19:59:04.380Z,15.07
2022-12-08T20:01:50.627Z,14.15
2022-12-08T20:04:39.046Z,13.40
2022-12-08T20:07:09.025Z,12.43
2022-12-08T20:09:40.983Z,14.60
2022-12-08T20:12:36.966Z,15.45
2022-12-08T20:15:05.631Z,14.32
2022-12-08T20:17:39.616Z,14.20
2022-12-08T20:20:09.721Z,16.00
2022-12-08T20:22:37.720Z,16.85
2022-12-08T20:25:05.913Z,16.65
2022-12-08T20:27:35.997Z,15.75
2022-12-08T20:30:04.285Z,15.40
2022-12-08T20:32:46.977Z,15.32
2022-12-08T20:35:17.618Z,16.65
2022-12-08T20:37:45.357Z,14.10
2022-12-08T20:40:13.597Z,15.07
2022-12-08T20:42:43.008Z,14.52
2022-12-08T20:45:10.922Z,14.57
2022-12-08T20:47:39.212Z,14.55
2022-12-08T20:50:09.112Z,13.77
2022-12-08T20:52:38.325Z,18.20
2022-12-08T20:55:07.977Z,17.08
2022-12-08T20:57:35.880Z,15.57
2022-12-08T21:00:10.479Z,15.98
2022-12-08T21:02:45.066Z,12.82
2022-12-08T21:05:14.925Z,14.32
2022-12-08T21:07:43.188Z,15.00
2022-12-08T21:10:11.753Z,13.48
2022-12-08T21:12:43.072Z,13.18
2022-12-08T21:15:13.270Z,12.55
2022-12-08T21:17:41.930Z,12.93
2022-12-08T21:20:10.885Z,12.05
2022-12-08T21:22:41.306Z,13.15
2022-12-08T21:25:10.487Z,12.25
2022-12-08T21:27:39.030Z,13.07
2022-12-08T21:30:08.959Z,12.50
2022-12-08T21:32:40.900Z,13.25
2022-12-08T21:35:09.800Z,12.13
2022-12-08T21:37:40.689Z,12.63
2022-12-08T21:40:21.997Z,13.35
2022-12-08T21:43:06.644Z,12.45
2022-12-08T21:45:52.338Z,12.48
2022-12-08T21:48:22.957Z,12.77
2022-12-08T21:50:51.172Z,13.75
2022-12-08T21:53:21.073Z,12.50
2022-12-08T21:55:49.360Z,13.85
2022-12-08T21:58:29.222Z,13.10
2022-12-08T22:01:31.701Z,13.75
2022-12-08T22:04:38.444Z,15.52
2022-12-08T22:07:30.369Z,15.35
2022-12-08T22:10:25.369Z,15.18
2022-12-08T22:12:54.595Z,15.93
2022-12-08T22:15:22.733Z,14.60
2022-12-08T22:17:56.915Z,16.25
2022-12-08T22:20:28.529Z,17.85
2022-12-08T22:22:56.836Z,16.40
2022-12-08T22:25:25.412Z,15.10
2022-12-08T22:27:53.937Z,15.95
2022-12-08T22:30:25.245Z,15.05
2022-12-08T22:32:53.563Z,14.68
2022-12-08T22:35:24.067Z,13.57
2022-12-08T22:37:58.017Z,13.98
2022-12-08T22:40:26.210Z,13.82
2022-12-08T22:42:59.596Z,15.13
2022-12-08T22:45:27.986Z,14.38
2022-12-08T22:47:56.081Z,14.68
2022-12-08T22:50:25.794Z,15.05
2022-12-08T22:52:57.554Z,13.60
2022-12-08T22:55:25.595Z,14.75
2022-12-08T22:57:53.626Z,13.43
2022-12-08T23:00:22.374Z,14.20
2022-12-08T23:02:50.491Z,12.93
2022-12-08T23:05:18.572Z,12.05
2022-12-08T23:07:47.039Z,11.45
2022-12-08T23:10:16.539Z,12.88
2022-12-08T23:12:44.506Z,11.65
2022-12-08T23:15:16.615Z,11.38
2022-12-08T23:17:46.857Z,12.70
2022-12-08T23:20:20.352Z,12.73
2022-12-08T23:22:48.158Z,13.95
2022-12-08T23:25:20.193Z,13.57
2022-12-08T23:27:51.265Z,14.45
2022-12-08T23:30:29.786Z,14.88
2022-12-08T23:32:59.868Z,14.73
2022-12-08T23:35:28.054Z,15.02
2022-12-08T23:37:55.962Z,15.52
2022-12-08T23:40:25.620Z,16.85
2022-12-08T23:42:53.519Z,15.73
2022-12-08T23:45:21.669Z,16.80
2022-12-08T23:47:49.622Z,16.17
2022-12-08T23:50:20.265Z,14.95
2022-12-08T23:52:50.956Z,16.17
2022-12-08T23:55:18.774Z,15.52
2022-12-08T23:57:48.801Z,15.00
